sensor_id;sensor_type;location;lat;lon;timestamp;P1;durP1;ratioP1;P2;durP2;ratioP2
21488;SDS011;10906;45.194;5.684;2023-05-07T05:01:31;3.38;;;2.88;;
21488;SDS011;10906;45.194;5.684;2023-05-07T05:04:16;7.00;;;2.78;;
21488;SDS011;10906;45.194;5.684;2023-05-07T05:07:01;3.97;;;2.75;;
21488;SDS011;10906;45.194;5.684;2023-05-07T05:09:47;3.95;;;2.80;;
21488;SDS011;10906;45.194;5.684;2023-05-07T05:12:31;5.32;;;2.95;;
21488;SDS011;10906;45.194;5.684;2023-05-07T05:15:16;8.80;;;3.10;;
21488;SDS011;10906;45.194;5.684;2023-05-07T05:18:01;8.15;;;2.65;;
21488;SDS011;10906;45.194;5.684;2023-05-07T05:20:45;4.53;;;3.42;;
21488;SDS011;10906;45.194;5.684;2023-05-07T05:23:30;7.05;;;2.78;;
21488;SDS011;10906;45.194;5.684;2023-05-07T05:26:14;6.30;;;2.88;;
21488;SDS011;10906;45.194;5.684;2023-05-07T05:28:59;4.75;;;3.00;;
21488;SDS011;10906;45.194;5.684;2023-05-07T05:31:43;8.00;;;3.78;;
21488;SDS011;10906;45.194;5.684;2023-05-07T05:34:28;5.28;;;2.92;;
21488;SDS011;10906;45.194;5.684;2023-05-07T05:37:13;9.75;;;3.58;;
21488;SDS011;10906;45.194;5.684;2023-05-07T05:39:57;4.90;;;2.72;;
21488;SDS011;10906;45.194;5.684;2023-05-07T05:42:42;4.97;;;2.20;;
21488;SDS011;10906;45.194;5.684;2023-05-07T05:45:26;6.20;;;2.80;;
21488;SDS011;10906;45.194;5.684;2023-05-07T05:48:11;3.70;;;2.45;;
21488;SDS011;10906;45.194;5.684;2023-05-07T05:50:56;5.72;;;2.45;;
21488;SDS011;10906;45.194;5.684;2023-05-07T05:53:40;3.53;;;2.70;;
21488;SDS011;10906;45.194;5.684;2023-05-07T05:56:25;6.68;;;2.63;;
21488;SDS011;10906;45.194;5.684;2023-05-07T05:59:10;6.07;;;2.63;;
21488;SDS011;10906;45.194;5.684;2023-05-07T06:01:54;5.60;;;2.53;;
21488;SDS011;10906;45.194;5.684;2023-05-07T06:04:39;4.32;;;2.08;;
21488;SDS011;10906;45.194;5.684;2023-05-07T06:07:24;4.45;;;2.40;;
21488;SDS011;10906;45.194;5.684;2023-05-07T06:10:09;5.97;;;2.40;;
21488;SDS011;10906;45.194;5.684;2023-05-07T06:12:54;5.40;;;2.38;;
21488;SDS011;10906;45.194;5.684;2023-05-07T06:15:38;5.20;;;2.20;;
21488;SDS011;10906;45.194;5.684;2023-05-07T06:18:23;5.50;;;2.03;;
21488;SDS011;10906;45.194;5.684;2023-05-07T06:21:09;7.65;;;2.53;;
21488;SDS011;10906;45.194;5.684;2023-05-07T06:23:54;4.65;;;2.05;;
21488;SDS011;10906;45.194;5.684;2023-05-07T06:26:38;4.95;;;2.47;;
21488;SDS011;10906;45.194;5.684;2023-05-07T06:29:23;4.82;;;2.15;;
21488;SDS011;10906;45.194;5.684;2023-05-07T06:32:09;5.43;;;2.00;;
21488;SDS011;10906;45.194;5.684;2023-05-07T06:34:55;6.65;;;2.10;;
21488;SDS011;10906;45.194;5.684;2023-05-07T06:37:40;5.00;;;2.10;;
21488;SDS011;10906;45.194;5.684;2023-05-07T06:40:26;4.57;;;1.70;;
21488;SDS011;10906;45.194;5.684;2023-05-07T06:43:11;3.85;;;1.98;;
21488;SDS011;10906;45.194;5.684;2023-05-07T06:45:55;4.05;;;1.90;;
21488;SDS011;10906;45.194;5.684;2023-05-07T06:48:40;6.47;;;2.05;;
21488;SDS011;10906;45.194;5.684;2023-05-07T06:51:24;3.90;;;1.98;;
21488;SDS011;10906;45.194;5.684;2023-05-07T06:54:09;6.28;;;2.50;;
21488;SDS011;10906;45.194;5.684;2023-05-07T06:56:53;4.80;;;2.13;;
21488;SDS011;10906;45.194;5.684;2023-05-07T06:59:38;4.82;;;2.10;;
21488;SDS011;10906;45.194;5.684;2023-05-07T07:02:24;4.57;;;1.92;;
21488;SDS011;10906;45.194;5.684;2023-05-07T07:05:09;5.82;;;1.95;;
21488;SDS011;10906;45.194;5.684;2023-05-07T07:07:56;2.60;;;1.63;;
21488;SDS011;10906;45.194;5.684;2023-05-07T07:10:41;3.58;;;1.77;;
21488;SDS011;10906;45.194;5.684;2023-05-07T07:13:26;6.13;;;1.80;;
21488;SDS011;10906;45.194;5.684;2023-05-07T07:16:22;6.60;;;2.13;;
21488;SDS011;10906;45.194;5.684;2023-05-07T07:19:07;4.28;;;1.73;;
21488;SDS011;10906;45.194;5.684;2023-05-07T07:21:51;3.70;;;1.70;;
21488;SDS011;10906;45.194;5.684;2023-05-07T07:24:36;6.78;;;1.95;;
21488;SDS011;10906;45.194;5.684;2023-05-07T07:27:21;6.13;;;2.00;;
21488;SDS011;10906;45.194;5.684;2023-05-07T07:30:05;4.82;;;1.90;;
21488;SDS011;10906;45.194;5.684;2023-05-07T07:32:50;6.82;;;1.80;;
21488;SDS011;10906;45.194;5.684;2023-05-07T07:35:36;3.70;;;2.15;;
21488;SDS011;10906;45.194;5.684;2023-05-07T07:38:21;5.05;;;1.52;;
21488;SDS011;10906;45.194;5.684;2023-05-07T07:41:07;4.75;;;1.90;;
21488;SDS011;10906;45.194;5.684;2023-05-07T07:43:52;5.18;;;2.20;;
21488;SDS011;10906;45.194;5.684;2023-05-07T07:46:36;6.10;;;2.10;;
21488;SDS011;10906;45.194;5.684;2023-05-07T07:49:21;8.52;;;2.58;;
21488;SDS011;10906;45.194;5.684;2023-05-07T07:52:05;4.55;;;2.13;;
21488;SDS011;10906;45.194;5.684;2023-05-07T07:54:50;5.07;;;2.60;;
21488;SDS011;10906;45.194;5.684;2023-05-07T07:57:35;2.80;;;2.35;;
21488;SDS011;10906;45.194;5.684;2023-05-07T08:00:19;3.65;;;2.30;;
21488;SDS011;10906;45.194;5.684;2023-05-07T08:03:04;2.92;;;2.08;;
21488;SDS011;10906;45.194;5.684;2023-05-07T08:05:52;4.82;;;2.58;;
21488;SDS011;10906;45.194;5.684;2023-05-07T08:08:37;2.58;;;1.90;;
21488;SDS011;10906;45.194;5.684;2023-05-07T08:11:21;3.78;;;1.98;;
21488;SDS011;10906;45.194;5.684;2023-05-07T08:14:06;4.00;;;2.13;;
21488;SDS011;10906;45.194;5.684;2023-05-07T08:16:50;4.22;;;2.05;;
21488;SDS011;10906;45.194;5.684;2023-05-07T08:19:35;6.88;;;2.10;;
21488;SDS011;10906;45.194;5.684;2023-05-07T08:22:19;4.55;;;2.08;;
21488;SDS011;10906;45.194;5.684;2023-05-07T08:25:04;3.88;;;2.10;;
21488;SDS011;10906;45.194;5.684;2023-05-07T08:27:49;2.83;;;1.60;;
21488;SDS011;10906;45.194;5.684;2023-05-07T08:30:33;4.00;;;2.20;;
21488;SDS011;10906;45.194;5.684;2023-05-07T08:33:18;4.00;;;2.20;;
21488;SDS011;10906;45.194;5.684;2023-05-07T08:36:02;5.20;;;2.15;;
21488;SDS011;10906;45.194;5.684;2023-05-07T08:38:47;4.30;;;2.13;;
21488;SDS011;10906;45.194;5.684;2023-05-07T08:41:34;5.20;;;2.10;;
21488;SDS011;10906;45.194;5.684;2023-05-07T08:44:18;3.78;;;1.90;;
21488;SDS011;10906;45.194;5.684;2023-05-07T08:47:06;9.90;;;1.90;;
21488;SDS011;10906;45.194;5.684;2023-05-07T08:49:51;8.63;;;2.10;;
21488;SDS011;10906;45.194;5.684;2023-05-07T08:52:38;9.77;;;1.92;;
21488;SDS011;10906;45.194;5.684;2023-05-07T08:55:24;7.07;;;2.00;;
21488;SDS011;10906;45.194;5.684;2023-05-07T08:58:09;4.85;;;2.22;;
21488;SDS011;10906;45.194;5.684;2023-05-07T09:00:53;6.10;;;1.95;;
21488;SDS011;10906;45.194;5.684;2023-05-07T09:03:38;3.80;;;2.00;;
21488;SDS011;10906;45.194;5.684;2023-05-07T09:06:23;3.80;;;1.60;;
21488;SDS011;10906;45.194;5.684;2023-05-07T09:09:08;3.53;;;1.90;;
21488;SDS011;10906;45.194;5.684;2023-05-07T09:11:56;5.50;;;2.15;;
21488;SDS011;10906;45.194;5.684;2023-05-07T09:14:43;4.53;;;2.00;;
21488;SDS011;10906;45.194;5.684;2023-05-07T09:17:28;6.30;;;1.80;;
21488;SDS011;10906;45.194;5.684;2023-05-07T09:20:13;2.28;;;1.60;;
21488;SDS011;10906;45.194;5.684;2023-05-07T09:22:57;4.07;;;1.80;;
21488;SDS011;10906;45.194;5.684;2023-05-07T09:25:42;3.10;;;1.42;;
21488;SDS011;10906;45.194;5.684;2023-05-07T09:28:27;3.15;;;1.77;;
21488;SDS011;10906;45.194;5.684;2023-05-07T09:31:11;3.05;;;1.42;;
21488;SDS011;10906;45.194;5.684;2023-05-07T09:33:57;3.60;;;1.40;;
21488;SDS011;10906;45.194;5.684;2023-05-07T09:36:41;2.70;;;1.70;;
21488;SDS011;10906;45.194;5.684;2023-05-07T09:39:26;4.13;;;1.90;;
21488;SDS011;10906;45.194;5.684;2023-05-07T09:42:24;4.45;;;2.35;;
21488;SDS011;10906;45.194;5.684;2023-05-07T09:45:12;4.70;;;1.92;;
21488;SDS011;10906;45.194;5.684;2023-05-07T09:47:57;5.75;;;2.08;;
21488;SDS011;10906;45.194;5.684;2023-05-07T09:50:49;2.95;;;2.08;;
21488;SDS011;10906;45.194;5.684;2023-05-07T09:53:42;2.63;;;1.90;;
21488;SDS011;10906;45.194;5.684;2023-05-07T09:56:27;3.72;;;1.67;;
21488;SDS011;10906;45.194;5.684;2023-05-07T09:59:14;4.80;;;2.20;;
21488;SDS011;10906;45.194;5.684;2023-05-07T10:02:00;3.53;;;2.58;;
21488;SDS011;10906;45.194;5.684;2023-05-07T10:04:45;4.88;;;2.20;;
21488;SDS011;10906;45.194;5.684;2023-05-07T10:07:31;4.80;;;2.40;;
21488;SDS011;10906;45.194;5.684;2023-05-07T10:10:16;9.48;;;2.50;;
21488;SDS011;10906;45.194;5.684;2023-05-07T10:13:02;5.60;;;2.95;;
21488;SDS011;10906;45.194;5.684;2023-05-07T10:15:49;6.10;;;4.00;;
21488;SDS011;10906;45.194;5.684;2023-05-07T10:18:34;5.07;;;3.00;;
21488;SDS011;10906;45.194;5.684;2023-05-07T10:21:20;4.55;;;2.75;;
21488;SDS011;10906;45.194;5.684;2023-05-07T10:24:10;5.03;;;2.38;;
21488;SDS011;10906;45.194;5.684;2023-05-07T10:27:01;6.35;;;2.50;;
21488;SDS011;10906;45.194;5.684;2023-05-07T10:32:36;5.28;;;2.38;;
21488;SDS011;10906;45.194;5.684;2023-05-07T10:35:40;2.95;;;2.10;;
21488;SDS011;10906;45.194;5.684;2023-05-07T10:38:27;3.45;;;2.40;;
21488;SDS011;10906;45.194;5.684;2023-05-07T10:41:12;3.80;;;2.22;;
21488;SDS011;10906;45.194;5.684;2023-05-07T10:43:59;5.10;;;1.85;;
21488;SDS011;10906;45.194;5.684;2023-05-07T10:47:02;4.57;;;2.10;;
21488;SDS011;10906;45.194;5.684;2023-05-07T10:53:18;3.28;;;2.10;;
21488;SDS011;10906;45.194;5.684;2023-05-07T11:02:04;4.75;;;2.10;;
21488;SDS011;10906;45.194;5.684;2023-05-07T11:08:06;3.58;;;1.95;;
21488;SDS011;10906;45.194;5.684;2023-05-07T11:10:52;5.63;;;2.20;;
21488;SDS011;10906;45.194;5.684;2023-05-07T11:13:44;3.08;;;2.00;;
21488;SDS011;10906;45.194;5.684;2023-05-07T11:16:29;3.90;;;2.08;;
21488;SDS011;10906;45.194;5.684;2023-05-07T11:19:16;3.50;;;1.80;;
21488;SDS011;10906;45.194;5.684;2023-05-07T11:22:01;3.00;;;2.08;;
21488;SDS011;10906;45.194;5.684;2023-05-07T11:24:45;2.17;;;1.80;;
21488;SDS011;10906;45.194;5.684;2023-05-07T11:27:30;3.50;;;2.33;;
21488;SDS011;10906;45.194;5.684;2023-05-07T11:30:19;2.70;;;1.98;;
21488;SDS011;10906;45.194;5.684;2023-05-07T11:33:03;2.85;;;1.90;;
21488;SDS011;10906;45.194;5.684;2023-05-07T11:35:48;4.13;;;1.92;;
21488;SDS011;10906;45.194;5.684;2023-05-07T11:38:35;4.18;;;2.40;;
21488;SDS011;10906;45.194;5.684;2023-05-07T11:41:20;5.13;;;2.17;;
21488;SDS011;10906;45.194;5.684;2023-05-07T11:44:05;4.35;;;2.25;;
21488;SDS011;10906;45.194;5.684;2023-05-07T11:46:50;5.20;;;2.10;;
21488;SDS011;10906;45.194;5.684;2023-05-07T11:49:35;4.90;;;1.85;;
21488;SDS011;10906;45.194;5.684;2023-05-07T11:52:20;2.67;;;2.15;;
21488;SDS011;10906;45.194;5.684;2023-05-07T11:55:06;3.40;;;2.10;;
21488;SDS011;10906;45.194;5.684;2023-05-07T11:57:51;3.95;;;2.30;;
21488;SDS011;10906;45.194;5.684;2023-05-07T12:00:36;3.95;;;2.15;;
21488;SDS011;10906;45.194;5.684;2023-05-07T12:03:21;7.60;;;2.25;;
21488;SDS011;10906;45.194;5.684;2023-05-07T12:06:06;4.15;;;2.10;;
21488;SDS011;10906;45.194;5.684;2023-05-07T12:08:50;2.22;;;1.92;;
21488;SDS011;10906;45.194;5.684;2023-05-07T12:11:38;3.30;;;2.17;;
21488;SDS011;10906;45.194;5.684;2023-05-07T12:14:26;4.28;;;2.00;;
21488;SDS011;10906;45.194;5.684;2023-05-07T12:17:13;2.70;;;1.90;;
21488;SDS011;10906;45.194;5.684;2023-05-07T12:19:58;3.55;;;2.28;;
21488;SDS011;10906;45.194;5.684;2023-05-07T12:22:44;3.58;;;2.20;;
21488;SDS011;10906;45.194;5.684;2023-05-07T12:25:34;2.25;;;1.60;;
21488;SDS011;10906;45.194;5.684;2023-05-07T12:28:19;6.60;;;2.25;;
21488;SDS011;10906;45.194;5.684;2023-05-07T12:31:05;3.08;;;1.92;;
21488;SDS011;10906;45.194;5.684;2023-05-07T12:33:50;4.57;;;2.10;;
21488;SDS011;10906;45.194;5.684;2023-05-07T12:36:37;3.92;;;2.40;;
21488;SDS011;10906;45.194;5.684;2023-05-07T12:39:22;5.45;;;2.30;;
21488;SDS011;10906;45.194;5.684;2023-05-07T12:42:07;3.25;;;2.15;;
21488;SDS011;10906;45.194;5.684;2023-05-07T12:44:52;3.97;;;2.30;;
21488;SDS011;10906;45.194;5.684;2023-05-07T12:47:36;5.03;;;2.17;;
21488;SDS011;10906;45.194;5.684;2023-05-07T12:50:21;3.85;;;2.55;;
21488;SDS011;10906;45.194;5.684;2023-05-07T12:53:06;3.33;;;2.30;;
21488;SDS011;10906;45.194;5.684;2023-05-07T12:55:53;3.70;;;2.30;;
21488;SDS011;10906;45.194;5.684;2023-05-07T12:58:42;3.90;;;2.55;;
21488;SDS011;10906;45.194;5.684;2023-05-07T13:01:30;5.05;;;2.67;;
21488;SDS011;10906;45.194;5.684;2023-05-07T13:04:15;4.57;;;2.60;;
21488;SDS011;10906;45.194;5.684;2023-05-07T13:07:00;3.30;;;2.80;;
21488;SDS011;10906;45.194;5.684;2023-05-07T13:09:45;5.20;;;2.65;;
21488;SDS011;10906;45.194;5.684;2023-05-07T13:12:31;4.65;;;2.47;;
21488;SDS011;10906;45.194;5.684;2023-05-07T13:15:16;2.72;;;2.00;;
21488;SDS011;10906;45.194;5.684;2023-05-07T13:18:01;3.95;;;2.67;;
21488;SDS011;10906;45.194;5.684;2023-05-07T13:20:46;3.80;;;2.10;;
21488;SDS011;10906;45.194;5.684;2023-05-07T13:23:31;3.03;;;2.58;;
21488;SDS011;10906;45.194;5.684;2023-05-07T13:26:16;2.92;;;2.22;;
21488;SDS011;10906;45.194;5.684;2023-05-07T13:29:00;3.10;;;2.45;;
21488;SDS011;10906;45.194;5.684;2023-05-07T13:31:45;3.47;;;2.25;;
21488;SDS011;10906;45.194;5.684;2023-05-07T13:34:30;5.25;;;2.70;;
21488;SDS011;10906;45.194;5.684;2023-05-07T13:37:15;3.90;;;2.28;;
21488;SDS011;10906;45.194;5.684;2023-05-07T13:40:00;5.97;;;2.58;;
21488;SDS011;10906;45.194;5.684;2023-05-07T13:42:45;6.10;;;2.10;;
21488;SDS011;10906;45.194;5.684;2023-05-07T13:45:30;3.55;;;2.17;;
21488;SDS011;10906;45.194;5.684;2023-05-07T13:48:14;3.90;;;2.25;;
21488;SDS011;10906;45.194;5.684;2023-05-07T13:50:59;6.15;;;2.67;;
21488;SDS011;10906;45.194;5.684;2023-05-07T13:53:43;6.07;;;2.35;;
21488;SDS011;10906;45.194;5.684;2023-05-07T13:56:28;3.90;;;2.17;;
21488;SDS011;10906;45.194;5.684;2023-05-07T13:59:15;4.25;;;2.25;;
21488;SDS011;10906;45.194;5.684;2023-05-07T14:02:00;2.90;;;2.03;;
21488;SDS011;10906;45.194;5.684;2023-05-07T14:04:45;6.47;;;1.98;;
21488;SDS011;10906;45.194;5.684;2023-05-07T14:07:29;2.75;;;1.73;;
21488;SDS011;10906;45.194;5.684;2023-05-07T14:10:14;6.07;;;2.20;;
21488;SDS011;10906;45.194;5.684;2023-05-07T14:12:59;3.53;;;2.00;;
21488;SDS011;10906;45.194;5.684;2023-05-07T14:15:43;3.28;;;2.30;;
21488;SDS011;10906;45.194;5.684;2023-05-07T14:18:32;3.60;;;2.08;;
21488;SDS011;10906;45.194;5.684;2023-05-07T14:21:18;2.92;;;1.90;;
21488;SDS011;10906;45.194;5.684;2023-05-07T14:24:02;4.13;;;2.15;;
21488;SDS011;10906;45.194;5.684;2023-05-07T14:26:47;3.83;;;2.33;;
21488;SDS011;10906;45.194;5.684;2023-05-07T14:29:32;4.03;;;2.35;;
21488;SDS011;10906;45.194;5.684;2023-05-07T14:32:19;4.60;;;2.78;;
21488;SDS011;10906;45.194;5.684;2023-05-07T14:35:03;3.00;;;2.03;;
21488;SDS011;10906;45.194;5.684;2023-05-07T14:37:48;4.20;;;2.13;;
21488;SDS011;10906;45.194;5.684;2023-05-07T14:40:34;6.65;;;2.28;;
21488;SDS011;10906;45.194;5.684;2023-05-07T14:43:19;5.45;;;2.58;;
21488;SDS011;10906;45.194;5.684;2023-05-07T14:46:04;4.20;;;2.08;;
21488;SDS011;10906;45.194;5.684;2023-05-07T14:48:49;5.28;;;2.60;;
21488;SDS011;10906;45.194;5.684;2023-05-07T14:51:34;6.38;;;2.42;;
21488;SDS011;10906;45.194;5.684;2023-05-07T14:54:19;4.72;;;2.50;;
21488;SDS011;10906;45.194;5.684;2023-05-07T14:57:04;2.47;;;2.28;;
21488;SDS011;10906;45.194;5.684;2023-05-07T14:59:49;2.30;;;1.75;;
21488;SDS011;10906;45.194;5.684;2023-05-07T15:02:34;3.72;;;1.90;;
21488;SDS011;10906;45.194;5.684;2023-05-07T15:05:19;2.90;;;2.10;;
21488;SDS011;10906;45.194;5.684;2023-05-07T15:08:04;3.63;;;2.20;;
21488;SDS011;10906;45.194;5.684;2023-05-07T15:10:49;2.20;;;1.98;;
21488;SDS011;10906;45.194;5.684;2023-05-07T15:13:33;2.78;;;2.05;;
21488;SDS011;10906;45.194;5.684;2023-05-07T15:16:18;2.35;;;2.15;;
21488;SDS011;10906;45.194;5.684;2023-05-07T15:19:02;4.15;;;2.17;;
21488;SDS011;10906;45.194;5.684;2023-05-07T15:21:47;4.32;;;1.95;;
21488;SDS011;10906;45.194;5.684;2023-05-07T15:24:32;1.95;;;1.75;;
21488;SDS011;10906;45.194;5.684;2023-05-07T15:27:16;3.55;;;1.77;;
21488;SDS011;10906;45.194;5.684;2023-05-07T15:30:01;1.60;;;1.40;;
21488;SDS011;10906;45.194;5.684;2023-05-07T15:32:46;1.83;;;1.48;;
21488;SDS011;10906;45.194;5.684;2023-05-07T15:35:31;2.55;;;1.85;;
21488;SDS011;10906;45.194;5.684;2023-05-07T15:38:15;6.70;;;1.45;;
21488;SDS011;10906;45.194;5.684;2023-05-07T15:41:00;4.13;;;1.13;;
21488;SDS011;10906;45.194;5.684;2023-05-07T15:43:46;4.93;;;0.80;;
21488;SDS011;10906;45.194;5.684;2023-05-07T15:46:33;3.38;;;1.20;;
21488;SDS011;10906;45.194;5.684;2023-05-07T15:49:20;1.85;;;1.20;;
21488;SDS011;10906;45.194;5.684;2023-05-07T15:52:05;2.47;;;1.20;;
21488;SDS011;10906;45.194;5.684;2023-05-07T15:54:50;2.22;;;1.60;;
21488;SDS011;10906;45.194;5.684;2023-05-07T15:57:34;4.75;;;1.52;;
21488;SDS011;10906;45.194;5.684;2023-05-07T16:00:19;2.58;;;1.80;;
21488;SDS011;10906;45.194;5.684;2023-05-07T16:03:04;1.70;;;1.40;;
21488;SDS011;10906;45.194;5.684;2023-05-07T16:05:49;2.63;;;1.63;;
21488;SDS011;10906;45.194;5.684;2023-05-07T16:08:37;3.05;;;1.60;;
21488;SDS011;10906;45.194;5.684;2023-05-07T16:11:23;1.35;;;1.25;;
21488;SDS011;10906;45.194;5.684;2023-05-07T16:14:07;2.03;;;1.40;;
21488;SDS011;10906;45.194;5.684;2023-05-07T16:16:52;1.42;;;1.30;;
21488;SDS011;10906;45.194;5.684;2023-05-07T16:19:37;2.45;;;1.30;;
21488;SDS011;10906;45.194;5.684;2023-05-07T16:22:21;3.03;;;1.33;;
21488;SDS011;10906;45.194;5.684;2023-05-07T16:25:17;6.38;;;1.52;;
21488;SDS011;10906;45.194;5.684;2023-05-07T16:28:02;2.55;;;1.30;;
21488;SDS011;10906;45.194;5.684;2023-05-07T16:30:50;3.58;;;1.40;;
21488;SDS011;10906;45.194;5.684;2023-05-07T16:33:59;2.65;;;1.20;;
21488;SDS011;10906;45.194;5.684;2023-05-07T16:36:43;3.17;;;1.02;;
21488;SDS011;10906;45.194;5.684;2023-05-07T16:39:28;2.20;;;1.40;;
21488;SDS011;10906;45.194;5.684;2023-05-07T16:42:13;6.60;;;1.50;;
21488;SDS011;10906;45.194;5.684;2023-05-07T16:44:58;3.13;;;1.67;;
21488;SDS011;10906;45.194;5.684;2023-05-07T16:47:43;2.22;;;1.48;;
21488;SDS011;10906;45.194;5.684;2023-05-07T16:50:28;3.17;;;1.65;;
21488;SDS011;10906;45.194;5.684;2023-05-07T16:53:16;4.82;;;2.47;;
21488;SDS011;10906;45.194;5.684;2023-05-07T16:56:06;3.05;;;2.10;;
21488;SDS011;10906;45.194;5.684;2023-05-07T16:58:51;4.40;;;2.33;;
21488;SDS011;10906;45.194;5.684;2023-05-07T17:01:35;2.72;;;1.67;;
21488;SDS011;10906;45.194;5.684;2023-05-07T17:04:23;4.85;;;2.13;;
21488;SDS011;10906;45.194;5.684;2023-05-07T17:07:10;5.43;;;1.83;;
21488;SDS011;10906;45.194;5.684;2023-05-07T17:09:55;2.55;;;2.00;;
21488;SDS011;10906;45.194;5.684;2023-05-07T17:12:40;2.22;;;1.40;;
21488;SDS011;10906;45.194;5.684;2023-05-07T17:15:25;3.15;;;1.80;;
21488;SDS011;10906;45.194;5.684;2023-05-07T17:18:09;3.83;;;2.00;;
21488;SDS011;10906;45.194;5.684;2023-05-07T17:20:54;6.03;;;2.22;;
21488;SDS011;10906;45.194;5.684;2023-05-07T17:23:38;4.43;;;2.53;;
21488;SDS011;10906;45.194;5.684;2023-05-07T17:26:24;2.75;;;1.83;;
21488;SDS011;10906;45.194;5.684;2023-05-07T17:29:08;2.50;;;2.00;;
21488;SDS011;10906;45.194;5.684;2023-05-07T17:31:53;3.38;;;2.13;;
21488;SDS011;10906;45.194;5.684;2023-05-07T17:34:38;4.05;;;1.80;;
21488;SDS011;10906;45.194;5.684;2023-05-07T17:37:23;2.70;;;1.70;;
21488;SDS011;10906;45.194;5.684;2023-05-07T17:40:07;4.85;;;2.65;;
21488;SDS011;10906;45.194;5.684;2023-05-07T17:42:52;4.68;;;1.95;;
21488;SDS011;10906;45.194;5.684;2023-05-07T17:45:37;3.25;;;2.35;;
21488;SDS011;10906;45.194;5.684;2023-05-07T17:48:22;2.65;;;1.88;;
21488;SDS011;10906;45.194;5.684;2023-05-07T17:51:08;5.32;;;2.30;;
21488;SDS011;10906;45.194;5.684;2023-05-07T17:53:53;3.72;;;2.20;;
21488;SDS011;10906;45.194;5.684;2023-05-07T17:56:38;2.38;;;1.55;;
21488;SDS011;10906;45.194;5.684;2023-05-07T17:59:23;3.17;;;1.92;;
21488;SDS011;10906;45.194;5.684;2023-05-07T18:02:07;3.65;;;2.08;;
21488;SDS011;10906;45.194;5.684;2023-05-07T18:04:53;4.20;;;1.90;;
21488;SDS011;10906;45.194;5.684;2023-05-07T18:07:37;4.78;;;1.80;;
21488;SDS011;10906;45.194;5.684;2023-05-07T18:10:22;2.42;;;1.75;;
21488;SDS011;10906;45.194;5.684;2023-05-07T18:13:07;2.60;;;1.42;;
21488;SDS011;10906;45.194;5.684;2023-05-07T18:15:51;5.30;;;1.88;;
21488;SDS011;10906;45.194;5.684;2023-05-07T18:18:36;1.42;;;1.10;;
21488;SDS011;10906;45.194;5.684;2023-05-07T18:21:21;2.05;;;1.33;;
21488;SDS011;10906;45.194;5.684;2023-05-07T18:24:05;2.45;;;1.50;;
21488;SDS011;10906;45.194;5.684;2023-05-07T18:26:50;1.40;;;1.27;;
21488;SDS011;10906;45.194;5.684;2023-05-07T18:29:35;3.95;;;1.65;;
21488;SDS011;10906;45.194;5.684;2023-05-07T18:32:19;3.42;;;1.48;;
21488;SDS011;10906;45.194;5.684;2023-05-07T18:35:05;2.10;;;1.85;;
21488;SDS011;10906;45.194;5.684;2023-05-07T18:37:52;2.75;;;1.85;;
21488;SDS011;10906;45.194;5.684;2023-05-07T18:40:37;4.07;;;2.70;;
21488;SDS011;10906;45.194;5.684;2023-05-07T18:43:26;2.75;;;2.13;;
21488;SDS011;10906;45.194;5.684;2023-05-07T18:46:11;2.15;;;1.60;;
21488;SDS011;10906;45.194;5.684;2023-05-07T18:48:56;1.48;;;1.20;;
21488;SDS011;10906;45.194;5.684;2023-05-07T18:51:40;2.33;;;1.48;;
21488;SDS011;10906;45.194;5.684;2023-05-07T18:54:25;2.85;;;2.05;;
21488;SDS011;10906;45.194;5.684;2023-05-07T18:57:10;2.50;;;1.70;;
21488;SDS011;10906;45.194;5.684;2023-05-07T18:59:55;2.38;;;1.45;;
21488;SDS011;10906;45.194;5.684;2023-05-07T19:02:39;1.60;;;1.02;;
21488;SDS011;10906;45.194;5.684;2023-05-07T19:05:24;2.80;;;0.90;;
21488;SDS011;10906;45.194;5.684;2023-05-07T19:08:09;1.48;;;0.90;;
21488;SDS011;10906;45.194;5.684;2023-05-07T19:10:54;2.70;;;1.67;;
21488;SDS011;10906;45.194;5.684;2023-05-07T19:13:39;1.85;;;1.38;;
21488;SDS011;10906;45.194;5.684;2023-05-07T19:16:24;2.33;;;1.00;;
21488;SDS011;10906;45.194;5.684;2023-05-07T19:19:09;1.20;;;1.00;;
21488;SDS011;10906;45.194;5.684;2023-05-07T19:21:53;1.55;;;0.85;;
21488;SDS011;10906;45.194;5.684;2023-05-07T19:24:38;3.47;;;0.73;;
21488;SDS011;10906;45.194;5.684;2023-05-07T19:27:23;1.23;;;1.00;;
21488;SDS011;10906;45.194;5.684;2023-05-07T19:30:08;0.95;;;0.82;;
21488;SDS011;10906;45.194;5.684;2023-05-07T19:32:53;0.80;;;0.73;;
21488;SDS011;10906;45.194;5.684;2023-05-07T19:35:38;1.35;;;1.02;;
21488;SDS011;10906;45.194;5.684;2023-05-07T19:38:23;1.58;;;0.75;;
21488;SDS011;10906;45.194;5.684;2023-05-07T19:41:09;0.95;;;0.70;;
21488;SDS011;10906;45.194;5.684;2023-05-07T19:43:54;1.75;;;0.70;;
21488;SDS011;10906;45.194;5.684;2023-05-07T19:46:39;1.42;;;0.80;;
21488;SDS011;10906;45.194;5.684;2023-05-07T19:49:27;1.80;;;0.60;;
21488;SDS011;10906;45.194;5.684;2023-05-07T19:52:12;1.40;;;0.65;;
21488;SDS011;10906;45.194;5.684;2023-05-07T19:54:57;2.13;;;0.80;;
21488;SDS011;10906;45.194;5.684;2023-05-07T19:57:42;0.60;;;0.60;;
21488;SDS011;10906;45.194;5.684;2023-05-07T20:00:32;2.05;;;0.90;;
21488;SDS011;10906;45.194;5.684;2023-05-07T20:03:17;1.13;;;1.02;;
21488;SDS011;10906;45.194;5.684;2023-05-07T20:06:01;2.25;;;1.00;;
21488;SDS011;10906;45.194;5.684;2023-05-07T20:08:46;1.17;;;0.80;;
21488;SDS011;10906;45.194;5.684;2023-05-07T20:11:30;2.20;;;0.80;;
21488;SDS011;10906;45.194;5.684;2023-05-07T20:14:15;3.08;;;0.90;;
21488;SDS011;10906;45.194;5.684;2023-05-07T20:17:00;1.00;;;0.90;;
21488;SDS011;10906;45.194;5.684;2023-05-07T20:19:45;1.27;;;0.70;;
21488;SDS011;10906;45.194;5.684;2023-05-07T20:22:29;2.72;;;0.88;;
21488;SDS011;10906;45.194;5.684;2023-05-07T20:25:14;2.67;;;0.80;;
21488;SDS011;10906;45.194;5.684;2023-05-07T20:27:59;0.88;;;0.80;;
21488;SDS011;10906;45.194;5.684;2023-05-07T20:30:44;1.58;;;0.93;;
21488;SDS011;10906;45.194;5.684;2023-05-07T20:33:28;1.02;;;0.93;;
21488;SDS011;10906;45.194;5.684;2023-05-07T20:36:14;1.75;;;1.10;;
21488;SDS011;10906;45.194;5.684;2023-05-07T20:38:58;1.17;;;0.80;;
21488;SDS011;10906;45.194;5.684;2023-05-07T20:41:43;1.10;;;0.77;;
21488;SDS011;10906;45.194;5.684;2023-05-07T20:44:27;1.50;;;0.90;;
21488;SDS011;10906;45.194;5.684;2023-05-07T20:47:18;1.27;;;0.88;;
21488;SDS011;10906;45.194;5.684;2023-05-07T20:50:03;0.82;;;0.77;;
21488;SDS011;10906;45.194;5.684;2023-05-07T20:52:48;1.02;;;0.77;;
21488;SDS011;10906;45.194;5.684;2023-05-07T20:55:33;1.48;;;1.20;;
21488;SDS011;10906;45.194;5.684;2023-05-07T20:58:18;1.85;;;1.27;;
21488;SDS011;10906;45.194;5.684;2023-05-07T21:01:03;1.00;;;1.00;;
21488;SDS011;10906;45.194;5.684;2023-05-07T21:03:49;2.38;;;1.13;;
21488;SDS011;10906;45.194;5.684;2023-05-07T21:06:36;1.02;;;0.90;;
21488;SDS011;10906;45.194;5.684;2023-05-07T21:09:21;1.20;;;1.10;;
21488;SDS011;10906;45.194;5.684;2023-05-07T21:12:06;1.38;;;1.05;;
21488;SDS011;10906;45.194;5.684;2023-05-07T21:14:51;2.00;;;1.15;;
21488;SDS011;10906;45.194;5.684;2023-05-07T21:17:36;4.60;;;0.90;;
21488;SDS011;10906;45.194;5.684;2023-05-07T21:20:21;1.60;;;1.10;;
21488;SDS011;10906;45.194;5.684;2023-05-07T21:23:06;1.45;;;0.93;;
21488;SDS011;10906;45.194;5.684;2023-05-07T21:25:51;1.65;;;1.20;;
21488;SDS011;10906;45.194;5.684;2023-05-07T21:28:35;3.38;;;1.20;;
21488;SDS011;10906;45.194;5.684;2023-05-07T21:31:20;1.73;;;1.38;;
21488;SDS011;10906;45.194;5.684;2023-05-07T21:34:05;2.35;;;1.45;;
21488;SDS011;10906;45.194;5.684;2023-05-07T21:36:53;1.10;;;1.00;;
21488;SDS011;10906;45.194;5.684;2023-05-07T21:39:37;1.40;;;1.30;;
21488;SDS011;10906;45.194;5.684;2023-05-07T21:42:23;3.13;;;1.35;;
21488;SDS011;10906;45.194;5.684;2023-05-07T21:45:08;2.45;;;1.10;;
21488;SDS011;10906;45.194;5.684;2023-05-07T21:47:53;1.38;;;1.27;;
21488;SDS011;10906;45.194;5.684;2023-05-07T21:50:38;1.98;;;1.27;;
21488;SDS011;10906;45.194;5.684;2023-05-07T21:53:23;2.30;;;1.02;;